sensor_id;sensor_type;location;lat;lon;timestamp;temperature;humidity
34985;DHT22;21190;58.750;17.004;2023-07-29T00:01:37;13.10;99.90
34985;DHT22;21190;58.750;17.004;2023-07-29T00:04:08;13.00;99.90
34985;DHT22;21190;58.750;17.004;2023-07-29T00:06:36;13.00;99.90
34985;DHT22;21190;58.750;17.004;2023-07-29T00:09:03;12.90;99.90
34985;DHT22;21190;58.750;17.004;2023-07-29T00:11:30;12.90;99.90
34985;DHT22;21190;58.750;17.004;2023-07-29T00:14:03;12.90;99.90
34985;DHT22;21190;58.750;17.004;2023-07-29T00:16:30;12.80;99.90
34985;DHT22;21190;58.750;17.004;2023-07-29T00:18:57;12.80;99.90
34985;DHT22;21190;58.750;17.004;2023-07-29T00:21:24;12.80;99.90
34985;DHT22;21190;58.750;17.004;2023-07-29T00:23:51;12.80;99.90
34985;DHT22;21190;58.750;17.004;2023-07-29T00:26:18;12.80;99.90
34985;DHT22;21190;58.750;17.004;2023-07-29T00:28:45;12.70;99.90
34985;DHT22;21190;58.750;17.004;2023-07-29T00:31:12;12.80;99.90
34985;DHT22;21190;58.750;17.004;2023-07-29T00:33:39;12.70;99.90
34985;DHT22;21190;58.750;17.004;2023-07-29T00:36:06;12.70;99.90
34985;DHT22;21190;58.750;17.004;2023-07-29T00:38:33;12.70;99.90
34985;DHT22;21190;58.750;17.004;2023-07-29T00:41:02;12.70;99.90
34985;DHT22;21190;58.750;17.004;2023-07-29T00:43:29;12.60;99.90
34985;DHT22;21190;58.750;17.004;2023-07-29T00:45:56;12.60;99.90
34985;DHT22;21190;58.750;17.004;2023-07-29T00:48:26;12.60;99.90
34985;DHT22;21190;58.750;17.004;2023-07-29T00:50:54;12.50;99.90
34985;DHT22;21190;58.750;17.004;2023-07-29T00:53:21;12.50;99.90
34985;DHT22;21190;58.750;17.004;2023-07-29T00:55:48;12.50;99.90
34985;DHT22;21190;58.750;17.004;2023-07-29T00:58:15;12.50;99.90
34985;DHT22;21190;58.750;17.004;2023-07-29T01:00:42;12.50;99.90
34985;DHT22;21190;58.750;17.004;2023-07-29T01:03:09;12.50;99.90
34985;DHT22;21190;58.750;17.004;2023-07-29T01:05:56;12.50;99.90
34985;DHT22;21190;58.750;17.004;2023-07-29T01:08:37;12.50;99.90
34985;DHT22;21190;58.750;17.004;2023-07-29T01:11:29;12.50;99.90
34985;DHT22;21190;58.750;17.004;2023-07-29T01:14:25;12.50;99.90
34985;DHT22;21190;58.750;17.004;2023-07-29T01:17:00;12.40;99.90
34985;DHT22;21190;58.750;17.004;2023-07-29T01:22:31;12.30;99.90
34985;DHT22;21190;58.750;17.004;2023-07-29T01:24:59;12.30;99.90
34985;DHT22;21190;58.750;17.004;2023-07-29T01:27:26;12.30;99.90
34985;DHT22;21190;58.750;17.004;2023-07-29T01:29:55;12.40;99.90
34985;DHT22;21190;58.750;17.004;2023-07-29T01:35:19;12.30;99.90
34985;DHT22;21190;58.750;17.004;2023-07-29T01:37:48;12.30;99.90
34985;DHT22;21190;58.750;17.004;2023-07-29T01:40:17;12.30;99.90
34985;DHT22;21190;58.750;17.004;2023-07-29T01:42:45;12.30;99.90
34985;DHT22;21190;58.750;17.004;2023-07-29T01:45:12;12.20;99.90
34985;DHT22;21190;58.750;17.004;2023-07-29T01:47:39;12.10;99.90
34985;DHT22;21190;58.750;17.004;2023-07-29T01:50:08;12.10;99.90
34985;DHT22;21190;58.750;17.004;2023-07-29T01:52:36;12.10;99.90
34985;DHT22;21190;58.750;17.004;2023-07-29T01:55:03;12.10;99.90
34985;DHT22;21190;58.750;17.004;2023-07-29T01:57:30;12.10;99.90
34985;DHT22;21190;58.750;17.004;2023-07-29T01:59:57;12.10;99.90
34985;DHT22;21190;58.750;17.004;2023-07-29T02:02:24;12.10;99.90
34985;DHT22;21190;58.750;17.004;2023-07-29T02:04:51;12.20;99.90
34985;DHT22;21190;58.750;17.004;2023-07-29T02:07:19;12.20;99.90
34985;DHT22;21190;58.750;17.004;2023-07-29T02:09:46;12.20;99.90
34985;DHT22;21190;58.750;17.004;2023-07-29T02:12:13;12.20;99.90
34985;DHT22;21190;58.750;17.004;2023-07-29T02:14:40;12.20;99.90
34985;DHT22;21190;58.750;17.004;2023-07-29T02:17:07;12.20;99.90
34985;DHT22;21190;58.750;17.004;2023-07-29T02:19:34;12.20;99.90
34985;DHT22;21190;58.750;17.004;2023-07-29T02:22:01;12.20;99.90
34985;DHT22;21190;58.750;17.004;2023-07-29T02:24:28;12.10;99.90
34985;DHT22;21190;58.750;17.004;2023-07-29T02:26:55;12.20;99.90
34985;DHT22;21190;58.750;17.004;2023-07-29T02:29:22;12.20;99.90
34985;DHT22;21190;58.750;17.004;2023-07-29T02:31:49;12.10;99.90
34985;DHT22;21190;58.750;17.004;2023-07-29T02:34:16;12.10;99.90
34985;DHT22;21190;58.750;17.004;2023-07-29T02:36:43;12.20;99.90
34985;DHT22;21190;58.750;17.004;2023-07-29T02:39:10;12.20;99.90
34985;DHT22;21190;58.750;17.004;2023-07-29T02:41:36;12.20;99.90
34985;DHT22;21190;58.750;17.004;2023-07-29T02:44:05;12.20;99.90
34985;DHT22;21190;58.750;17.004;2023-07-29T02:46:32;12.20;99.90
34985;DHT22;21190;58.750;17.004;2023-07-29T02:48:59;12.20;99.90
34985;DHT22;21190;58.750;17.004;2023-07-29T02:51:26;12.20;99.90
34985;DHT22;21190;58.750;17.004;2023-07-29T02:53:53;12.20;99.90
34985;DHT22;21190;58.750;17.004;2023-07-29T02:56:20;12.20;99.90
34985;DHT22;21190;58.750;17.004;2023-07-29T02:58:47;12.20;99.90
34985;DHT22;21190;58.750;17.004;2023-07-29T03:01:14;12.30;99.90
34985;DHT22;21190;58.750;17.004;2023-07-29T03:03:41;12.30;99.90
34985;DHT22;21190;58.750;17.004;2023-07-29T03:06:13;12.40;99.90
34985;DHT22;21190;58.750;17.004;2023-07-29T03:08:40;12.30;99.90
34985;DHT22;21190;58.750;17.004;2023-07-29T03:11:14;12.40;99.90
34985;DHT22;21190;58.750;17.004;2023-07-29T03:13:42;12.50;99.90
34985;DHT22;21190;58.750;17.004;2023-07-29T03:16:13;12.50;99.90
34985;DHT22;21190;58.750;17.004;2023-07-29T03:18:42;12.40;99.90
34985;DHT22;21190;58.750;17.004;2023-07-29T03:21:09;12.40;99.90
34985;DHT22;21190;58.750;17.004;2023-07-29T03:23:37;12.40;99.90
34985;DHT22;21190;58.750;17.004;2023-07-29T03:26:04;12.40;99.90
34985;DHT22;21190;58.750;17.004;2023-07-29T03:28:39;12.50;99.90
34985;DHT22;21190;58.750;17.004;2023-07-29T03:31:06;12.50;99.90
34985;DHT22;21190;58.750;17.004;2023-07-29T03:33:33;12.50;99.90
34985;DHT22;21190;58.750;17.004;2023-07-29T03:36:01;12.50;99.90
34985;DHT22;21190;58.750;17.004;2023-07-29T03:38:28;12.50;99.90
34985;DHT22;21190;58.750;17.004;2023-07-29T03:40:55;12.50;99.90
34985;DHT22;21190;58.750;17.004;2023-07-29T03:43:22;12.50;99.90
34985;DHT22;21190;58.750;17.004;2023-07-29T03:45:49;12.50;99.90
34985;DHT22;21190;58.750;17.004;2023-07-29T03:48:16;12.50;99.90
34985;DHT22;21190;58.750;17.004;2023-07-29T03:50:43;12.50;99.90
34985;DHT22;21190;58.750;17.004;2023-07-29T03:53:11;12.60;99.90
34985;DHT22;21190;58.750;17.004;2023-07-29T03:55:38;12.60;99.90
34985;DHT22;21190;58.750;17.004;2023-07-29T03:58:05;12.70;99.90
34985;DHT22;21190;58.750;17.004;2023-07-29T04:00:33;12.70;99.90
34985;DHT22;21190;58.750;17.004;2023-07-29T04:03:00;12.70;99.90
34985;DHT22;21190;58.750;17.004;2023-07-29T04:05:27;12.80;99.90
34985;DHT22;21190;58.750;17.004;2023-07-29T04:07:54;12.90;99.90
34985;DHT22;21190;58.750;17.004;2023-07-29T04:10:21;13.00;99.90
34985;DHT22;21190;58.750;17.004;2023-07-29T04:12:48;13.10;99.90
34985;DHT22;21190;58.750;17.004;2023-07-29T04:15:15;13.10;99.90
34985;DHT22;21190;58.750;17.004;2023-07-29T04:17:42;13.10;99.90
34985;DHT22;21190;58.750;17.004;2023-07-29T04:20:10;13.10;99.90
34985;DHT22;21190;58.750;17.004;2023-07-29T04:22:37;13.20;99.90
34985;DHT22;21190;58.750;17.004;2023-07-29T04:25:04;13.20;99.90
34985;DHT22;21190;58.750;17.004;2023-07-29T04:27:31;13.20;99.90
34985;DHT22;21190;58.750;17.004;2023-07-29T04:29:58;13.30;99.90
34985;DHT22;21190;58.750;17.004;2023-07-29T04:32:25;13.40;99.90
34985;DHT22;21190;58.750;17.004;2023-07-29T04:34:52;13.50;99.90
34985;DHT22;21190;58.750;17.004;2023-07-29T04:37:19;13.50;99.90
34985;DHT22;21190;58.750;17.004;2023-07-29T04:39:46;13.70;99.90
34985;DHT22;21190;58.750;17.004;2023-07-29T04:42:13;13.70;99.90
34985;DHT22;21190;58.750;17.004;2023-07-29T04:44:40;13.80;99.90
34985;DHT22;21190;58.750;17.004;2023-07-29T04:47:08;13.90;99.90
34985;DHT22;21190;58.750;17.004;2023-07-29T04:49:35;13.90;99.90
34985;DHT22;21190;58.750;17.004;2023-07-29T04:52:02;14.00;99.90
34985;DHT22;21190;58.750;17.004;2023-07-29T04:54:29;14.00;99.90
34985;DHT22;21190;58.750;17.004;2023-07-29T04:56:56;14.00;99.90
34985;DHT22;21190;58.750;17.004;2023-07-29T04:59:23;14.10;99.90
34985;DHT22;21190;58.750;17.004;2023-07-29T05:01:50;14.20;99.90
34985;DHT22;21190;58.750;17.004;2023-07-29T05:04:20;14.30;99.90
34985;DHT22;21190;58.750;17.004;2023-07-29T05:06:47;14.40;99.90
34985;DHT22;21190;58.750;17.004;2023-07-29T05:09:15;14.50;99.90
34985;DHT22;21190;58.750;17.004;2023-07-29T05:11:42;14.50;99.90
34985;DHT22;21190;58.750;17.004;2023-07-29T05:14:13;14.50;99.90
34985;DHT22;21190;58.750;17.004;2023-07-29T05:16:40;14.60;99.90
34985;DHT22;21190;58.750;17.004;2023-07-29T05:19:07;14.60;99.90
34985;DHT22;21190;58.750;17.004;2023-07-29T05:21:34;14.70;99.90
34985;DHT22;21190;58.750;17.004;2023-07-29T05:24:02;14.70;99.90
34985;DHT22;21190;58.750;17.004;2023-07-29T05:26:28;14.80;99.90
34985;DHT22;21190;58.750;17.004;2023-07-29T05:28:55;14.80;99.90
34985;DHT22;21190;58.750;17.004;2023-07-29T05:31:23;14.90;99.90
34985;DHT22;21190;58.750;17.004;2023-07-29T05:33:49;14.90;99.90
34985;DHT22;21190;58.750;17.004;2023-07-29T05:36:16;15.00;99.90
34985;DHT22;21190;58.750;17.004;2023-07-29T05:38:43;15.10;99.90
34985;DHT22;21190;58.750;17.004;2023-07-29T05:41:10;15.20;99.90
34985;DHT22;21190;58.750;17.004;2023-07-29T05:43:37;15.20;99.90
34985;DHT22;21190;58.750;17.004;2023-07-29T05:46:04;15.30;99.90
34985;DHT22;21190;58.750;17.004;2023-07-29T05:48:31;15.40;99.90
34985;DHT22;21190;58.750;17.004;2023-07-29T05:50:59;15.40;99.90
34985;DHT22;21190;58.750;17.004;2023-07-29T05:53:26;15.50;99.90
34985;DHT22;21190;58.750;17.004;2023-07-29T05:55:53;15.60;99.90
34985;DHT22;21190;58.750;17.004;2023-07-29T05:58:20;15.70;99.90
34985;DHT22;21190;58.750;17.004;2023-07-29T06:00:47;15.70;99.90
34985;DHT22;21190;58.750;17.004;2023-07-29T06:03:15;15.80;99.90
34985;DHT22;21190;58.750;17.004;2023-07-29T06:05:42;15.80;99.90
34985;DHT22;21190;58.750;17.004;2023-07-29T06:08:09;15.80;99.90
34985;DHT22;21190;58.750;17.004;2023-07-29T06:10:37;15.90;99.90
34985;DHT22;21190;58.750;17.004;2023-07-29T06:13:04;16.00;99.90
34985;DHT22;21190;58.750;17.004;2023-07-29T06:15:30;16.10;99.90
34985;DHT22;21190;58.750;17.004;2023-07-29T06:17:57;16.10;99.90
34985;DHT22;21190;58.750;17.004;2023-07-29T06:20:24;16.20;99.90
34985;DHT22;21190;58.750;17.004;2023-07-29T06:22:51;16.30;99.90
34985;DHT22;21190;58.750;17.004;2023-07-29T06:25:18;16.40;99.90
34985;DHT22;21190;58.750;17.004;2023-07-29T06:27:46;16.40;99.90
34985;DHT22;21190;58.750;17.004;2023-07-29T06:30:12;16.40;99.90
34985;DHT22;21190;58.750;17.004;2023-07-29T06:32:39;16.50;99.90
34985;DHT22;21190;58.750;17.004;2023-07-29T06:35:07;16.50;99.90
34985;DHT22;21190;58.750;17.004;2023-07-29T06:37:34;16.60;99.90
34985;DHT22;21190;58.750;17.004;2023-07-29T06:40:01;16.70;99.90
34985;DHT22;21190;58.750;17.004;2023-07-29T06:42:28;16.80;99.90
34985;DHT22;21190;58.750;17.004;2023-07-29T06:44:55;16.70;99.90
34985;DHT22;21190;58.750;17.004;2023-07-29T06:47:21;16.80;99.90
34985;DHT22;21190;58.750;17.004;2023-07-29T06:49:48;16.80;99.90
34985;DHT22;21190;58.750;17.004;2023-07-29T06:52:15;16.90;99.90
34985;DHT22;21190;58.750;17.004;2023-07-29T06:54:42;16.90;99.90
34985;DHT22;21190;58.750;17.004;2023-07-29T06:57:09;16.90;99.90
34985;DHT22;21190;58.750;17.004;2023-07-29T06:59:36;17.00;99.90
34985;DHT22;21190;58.750;17.004;2023-07-29T07:02:03;17.10;99.90
34985;DHT22;21190;58.750;17.004;2023-07-29T07:04:30;17.20;99.90
34985;DHT22;21190;58.750;17.004;2023-07-29T07:06:57;17.30;99.90
34985;DHT22;21190;58.750;17.004;2023-07-29T07:09:24;17.30;99.90
34985;DHT22;21190;58.750;17.004;2023-07-29T07:11:51;17.40;99.90
34985;DHT22;21190;58.750;17.004;2023-07-29T07:14:18;17.50;99.90
34985;DHT22;21190;58.750;17.004;2023-07-29T07:16:45;17.50;99.90
34985;DHT22;21190;58.750;17.004;2023-07-29T07:19:12;17.40;99.90
34985;DHT22;21190;58.750;17.004;2023-07-29T07:21:39;17.50;99.90
34985;DHT22;21190;58.750;17.004;2023-07-29T07:24:06;17.50;99.90
34985;DHT22;21190;58.750;17.004;2023-07-29T07:26:33;17.60;99.90
34985;DHT22;21190;58.750;17.004;2023-07-29T07:29:00;17.70;99.90
34985;DHT22;21190;58.750;17.004;2023-07-29T07:31:27;17.80;99.90
34985;DHT22;21190;58.750;17.004;2023-07-29T07:33:54;18.10;99.90
34985;DHT22;21190;58.750;17.004;2023-07-29T07:36:21;18.20;99.90
34985;DHT22;21190;58.750;17.004;2023-07-29T07:38:48;18.20;99.90
34985;DHT22;21190;58.750;17.004;2023-07-29T07:41:15;18.30;99.90
34985;DHT22;21190;58.750;17.004;2023-07-29T07:43:42;18.30;99.90
34985;DHT22;21190;58.750;17.004;2023-07-29T07:46:09;18.20;99.90
34985;DHT22;21190;58.750;17.004;2023-07-29T07:48:36;18.10;99.90
34985;DHT22;21190;58.750;17.004;2023-07-29T07:51:13;18.10;99.90
34985;DHT22;21190;58.750;17.004;2023-07-29T07:53:40;18.10;99.90
34985;DHT22;21190;58.750;17.004;2023-07-29T07:56:07;18.20;99.90
34985;DHT22;21190;58.750;17.004;2023-07-29T07:58:34;18.20;99.90
34985;DHT22;21190;58.750;17.004;2023-07-29T08:01:05;18.20;99.90
34985;DHT22;21190;58.750;17.004;2023-07-29T08:03:33;18.40;99.90
34985;DHT22;21190;58.750;17.004;2023-07-29T08:06:01;18.50;99.90
34985;DHT22;21190;58.750;17.004;2023-07-29T08:08:28;18.50;99.90
34985;DHT22;21190;58.750;17.004;2023-07-29T08:10:56;18.50;99.90
34985;DHT22;21190;58.750;17.004;2023-07-29T08:13:24;18.70;99.90
34985;DHT22;21190;58.750;17.004;2023-07-29T08:15:52;18.70;99.90
34985;DHT22;21190;58.750;17.004;2023-07-29T08:18:19;18.70;99.90
34985;DHT22;21190;58.750;17.004;2023-07-29T08:20:55;18.80;99.90
34985;DHT22;21190;58.750;17.004;2023-07-29T08:23:22;18.80;99.90
34985;DHT22;21190;58.750;17.004;2023-07-29T08:25:56;18.90;99.90
34985;DHT22;21190;58.750;17.004;2023-07-29T08:28:32;19.20;99.90
34985;DHT22;21190;58.750;17.004;2023-07-29T08:30:59;19.30;99.90
34985;DHT22;21190;58.750;17.004;2023-07-29T08:33:27;19.40;99.90
34985;DHT22;21190;58.750;17.004;2023-07-29T08:35:54;19.30;99.90
34985;DHT22;21190;58.750;17.004;2023-07-29T08:38:21;19.30;99.90
34985;DHT22;21190;58.750;17.004;2023-07-29T08:43:32;19.40;99.90
34985;DHT22;21190;58.750;17.004;2023-07-29T08:46:00;19.40;99.90
34985;DHT22;21190;58.750;17.004;2023-07-29T08:48:40;19.60;99.90
34985;DHT22;21190;58.750;17.004;2023-07-29T08:51:09;19.60;99.90
34985;DHT22;21190;58.750;17.004;2023-07-29T08:53:37;19.70;99.90
34985;DHT22;21190;58.750;17.004;2023-07-29T08:56:07;19.60;99.90
34985;DHT22;21190;58.750;17.004;2023-07-29T08:58:34;19.60;99.90
34985;DHT22;21190;58.750;17.004;2023-07-29T09:01:02;19.60;99.90
34985;DHT22;21190;58.750;17.004;2023-07-29T09:03:29;19.70;99.90
34985;DHT22;21190;58.750;17.004;2023-07-29T09:05:58;20.00;99.90
34985;DHT22;21190;58.750;17.004;2023-07-29T09:08:28;20.10;99.90
34985;DHT22;21190;58.750;17.004;2023-07-29T09:10:55;20.20;99.90
34985;DHT22;21190;58.750;17.004;2023-07-29T09:13:22;20.30;99.90
34985;DHT22;21190;58.750;17.004;2023-07-29T09:15:49;20.20;99.90
34985;DHT22;21190;58.750;17.004;2023-07-29T09:18:20;20.10;99.90
34985;DHT22;21190;58.750;17.004;2023-07-29T09:20:48;20.30;99.90
34985;DHT22;21190;58.750;17.004;2023-07-29T09:23:16;20.50;99.90
34985;DHT22;21190;58.750;17.004;2023-07-29T09:25:43;20.60;99.90
34985;DHT22;21190;58.750;17.004;2023-07-29T09:28:14;20.60;99.90
34985;DHT22;21190;58.750;17.004;2023-07-29T09:30:44;20.70;99.90
34985;DHT22;21190;58.750;17.004;2023-07-29T09:33:11;20.90;99.90
34985;DHT22;21190;58.750;17.004;2023-07-29T09:35:38;20.80;99.90
34985;DHT22;21190;58.750;17.004;2023-07-29T09:38:06;20.90;99.90
34985;DHT22;21190;58.750;17.004;2023-07-29T09:40:35;21.00;99.90
34985;DHT22;21190;58.750;17.004;2023-07-29T09:43:04;21.10;99.90
34985;DHT22;21190;58.750;17.004;2023-07-29T09:45:34;21.00;99.90
34985;DHT22;21190;58.750;17.004;2023-07-29T09:48:02;21.10;99.90
34985;DHT22;21190;58.750;17.004;2023-07-29T09:50:29;21.10;99.90
34985;DHT22;21190;58.750;17.004;2023-07-29T09:52:57;21.00;99.90
34985;DHT22;21190;58.750;17.004;2023-07-29T09:55:27;21.00;99.90
34985;DHT22;21190;58.750;17.004;2023-07-29T09:57:57;21.00;99.90
34985;DHT22;21190;58.750;17.004;2023-07-29T10:00:28;21.00;99.90
34985;DHT22;21190;58.750;17.004;2023-07-29T10:02:56;21.10;99.90
34985;DHT22;21190;58.750;17.004;2023-07-29T10:05:26;21.00;99.90
34985;DHT22;21190;58.750;17.004;2023-07-29T10:07:54;21.00;99.90
34985;DHT22;21190;58.750;17.004;2023-07-29T10:10:21;21.20;99.90
34985;DHT22;21190;58.750;17.004;2023-07-29T10:12:48;21.30;99.90
34985;DHT22;21190;58.750;17.004;2023-07-29T10:15:17;21.30;99.90
34985;DHT22;21190;58.750;17.004;2023-07-29T10:17:46;21.30;99.90
34985;DHT22;21190;58.750;17.004;2023-07-29T10:20:16;21.30;99.90
34985;DHT22;21190;58.750;17.004;2023-07-29T10:22:46;21.30;99.90
34985;DHT22;21190;58.750;17.004;2023-07-29T10:25:24;21.30;99.90
34985;DHT22;21190;58.750;17.004;2023-07-29T10:28:05;21.30;99.90
34985;DHT22;21190;58.750;17.004;2023-07-29T10:30:32;21.20;99.90
34985;DHT22;21190;58.750;17.004;2023-07-29T10:33:03;21.40;99.90
34985;DHT22;21190;58.750;17.004;2023-07-29T10:35:35;21.50;99.90
34985;DHT22;21190;58.750;17.004;2023-07-29T10:38:03;21.40;99.90
34985;DHT22;21190;58.750;17.004;2023-07-29T10:40:51;21.40;99.90
34985;DHT22;21190;58.750;17.004;2023-07-29T10:46:18;21.40;99.90
34985;DHT22;21190;58.750;17.004;2023-07-29T10:48:54;21.40;99.90
34985;DHT22;21190;58.750;17.004;2023-07-29T10:51:33;21.40;99.90
34985;DHT22;21190;58.750;17.004;2023-07-29T10:54:21;21.50;99.90
34985;DHT22;21190;58.750;17.004;2023-07-29T10:56:49;21.50;99.90
34985;DHT22;21190;58.750;17.004;2023-07-29T11:01:57;21.70;99.90
34985;DHT22;21190;58.750;17.004;2023-07-29T11:12:51;21.90;99.90
34985;DHT22;21190;58.750;17.004;2023-07-29T11:15:28;21.90;99.90
34985;DHT22;21190;58.750;17.004;2023-07-29T11:18:00;21.80;99.90
34985;DHT22;21190;58.750;17.004;2023-07-29T11:20:32;21.90;99.90
34985;DHT22;21190;58.750;17.004;2023-07-29T11:23:01;22.20;99.90
34985;DHT22;21190;58.750;17.004;2023-07-29T11:25:30;22.30;99.90
34985;DHT22;21190;58.750;17.004;2023-07-29T11:27:58;22.40;99.90
34985;DHT22;21190;58.750;17.004;2023-07-29T11:30:28;22.40;99.90
34985;DHT22;21190;58.750;17.004;2023-07-29T11:32:57;22.30;99.90
34985;DHT22;21190;58.750;17.004;2023-07-29T11:35:24;22.30;99.90
34985;DHT22;21190;58.750;17.004;2023-07-29T11:37:54;22.30;99.90
34985;DHT22;21190;58.750;17.004;2023-07-29T11:40:22;22.50;99.90
34985;DHT22;21190;58.750;17.004;2023-07-29T11:42:52;22.50;99.90
34985;DHT22;21190;58.750;17.004;2023-07-29T11:45:20;22.60;99.90
34985;DHT22;21190;58.750;17.004;2023-07-29T11:47:51;22.60;99.90
34985;DHT22;21190;58.750;17.004;2023-07-29T11:50:18;22.60;99.90
34985;DHT22;21190;58.750;17.004;2023-07-29T11:52:46;22.70;99.90
34985;DHT22;21190;58.750;17.004;2023-07-29T11:55:14;22.70;99.90
34985;DHT22;21190;58.750;17.004;2023-07-29T11:57:43;22.70;99.90
34985;DHT22;21190;58.750;17.004;2023-07-29T12:00:11;22.70;99.90
34985;DHT22;21190;58.750;17.004;2023-07-29T12:02:41;22.80;99.90
34985;DHT22;21190;58.750;17.004;2023-07-29T12:05:12;22.80;99.90
34985;DHT22;21190;58.750;17.004;2023-07-29T12:07:40;22.90;99.90
34985;DHT22;21190;58.750;17.004;2023-07-29T12:10:09;23.00;99.90
34985;DHT22;21190;58.750;17.004;2023-07-29T12:12:46;23.00;99.90
34985;DHT22;21190;58.750;17.004;2023-07-29T12:15:28;23.20;99.90
34985;DHT22;21190;58.750;17.004;2023-07-29T12:17:56;23.20;99.90
34985;DHT22;21190;58.750;17.004;2023-07-29T12:20:25;23.10;99.90
34985;DHT22;21190;58.750;17.004;2023-07-29T12:22:57;23.20;99.90
34985;DHT22;21190;58.750;17.004;2023-07-29T12:25:26;23.20;99.90
34985;DHT22;21190;58.750;17.004;2023-07-29T12:27:53;23.30;99.90
34985;DHT22;21190;58.750;17.004;2023-07-29T12:30:21;23.30;99.90
34985;DHT22;21190;58.750;17.004;2023-07-29T12:32:49;23.30;99.90
34985;DHT22;21190;58.750;17.004;2023-07-29T12:35:16;23.30;99.90
34985;DHT22;21190;58.750;17.004;2023-07-29T12:37:43;23.30;99.90
34985;DHT22;21190;58.750;17.004;2023-07-29T12:40:26;23.40;99.90
34985;DHT22;21190;58.750;17.004;2023-07-29T12:42:54;23.40;99.90
34985;DHT22;21190;58.750;17.004;2023-07-29T12:45:21;23.50;99.90
34985;DHT22;21190;58.750;17.004;2023-07-29T12:47:54;23.50;99.90
34985;DHT22;21190;58.750;17.004;2023-07-29T12:50:21;23.50;99.90
34985;DHT22;21190;58.750;17.004;2023-07-29T12:52:48;23.50;99.90
34985;DHT22;21190;58.750;17.004;2023-07-29T12:55:15;23.50;99.90
34985;DHT22;21190;58.750;17.004;2023-07-29T12:57:46;23.60;99.90
34985;DHT22;21190;58.750;17.004;2023-07-29T13:00:13;23.60;99.90
34985;DHT22;21190;58.750;17.004;2023-07-29T13:02:40;23.70;99.90
34985;DHT22;21190;58.750;17.004;2023-07-29T13:05:10;23.80;99.90
34985;DHT22;21190;58.750;17.004;2023-07-29T13:07:43;23.90;99.90
34985;DHT22;21190;58.750;17.004;2023-07-29T13:10:10;23.90;99.90
34985;DHT22;21190;58.750;17.004;2023-07-29T13:12:37;23.90;99.90
34985;DHT22;21190;58.750;17.004;2023-07-29T13:15:05;23.90;99.90
34985;DHT22;21190;58.750;17.004;2023-07-29T13:17:33;23.90;99.90
34985;DHT22;21190;58.750;17.004;2023-07-29T13:20:01;23.90;99.90
34985;DHT22;21190;58.750;17.004;2023-07-29T13:22:28;23.90;99.90
34985;DHT22;21190;58.750;17.004;2023-07-29T13:24:55;23.90;99.90
34985;DHT22;21190;58.750;17.004;2023-07-29T13:27:22;23.90;99.90
34985;DHT22;21190;58.750;17.004;2023-07-29T13:29:50;23.90;99.90
34985;DHT22;21190;58.750;17.004;2023-07-29T13:32:17;24.00;99.90
34985;DHT22;21190;58.750;17.004;2023-07-29T13:34:44;24.00;99.90
34985;DHT22;21190;58.750;17.004;2023-07-29T13:37:11;24.00;99.90
34985;DHT22;21190;58.750;17.004;2023-07-29T13:39:38;23.90;99.90
34985;DHT22;21190;58.750;17.004;2023-07-29T13:42:05;24.00;99.90
34985;DHT22;21190;58.750;17.004;2023-07-29T13:44:32;24.10;99.90
34985;DHT22;21190;58.750;17.004;2023-07-29T13:46:59;24.10;99.90
34985;DHT22;21190;58.750;17.004;2023-07-29T13:49:26;24.10;99.90
34985;DHT22;21190;58.750;17.004;2023-07-29T13:51:53;24.10;99.90
34985;DHT22;21190;58.750;17.004;2023-07-29T13:54:20;24.20;99.90
34985;DHT22;21190;58.750;17.004;2023-07-29T13:56:48;24.20;99.90
34985;DHT22;21190;58.750;17.004;2023-07-29T13:59:15;24.20;99.90
34985;DHT22;21190;58.750;17.004;2023-07-29T14:01:42;24.30;99.90
34985;DHT22;21190;58.750;17.004;2023-07-29T14:04:09;24.30;99.90
34985;DHT22;21190;58.750;17.004;2023-07-29T14:06:36;24.30;99.90
34985;DHT22;21190;58.750;17.004;2023-07-29T14:09:12;24.30;99.90
34985;DHT22;21190;58.750;17.004;2023-07-29T14:11:39;24.30;99.90
34985;DHT22;21190;58.750;17.004;2023-07-29T14:14:07;24.40;99.90
34985;DHT22;21190;58.750;17.004;2023-07-29T14:16:34;24.20;99.90
34985;DHT22;21190;58.750;17.004;2023-07-29T14:19:02;24.30;99.90
34985;DHT22;21190;58.750;17.004;2023-07-29T14:21:29;24.40;99.90
34985;DHT22;21190;58.750;17.004;2023-07-29T14:23:56;24.40;99.90
34985;DHT22;21190;58.750;17.004;2023-07-29T14:26:23;24.40;99.90
34985;DHT22;21190;58.750;17.004;2023-07-29T14:28:50;24.40;99.90
34985;DHT22;21190;58.750;17.004;2023-07-29T14:31:17;24.50;99.90
34985;DHT22;21190;58.750;17.004;2023-07-29T14:33:44;24.50;99.90
34985;DHT22;21190;58.750;17.004;2023-07-29T14:36:11;24.50;99.90
34985;DHT22;21190;58.750;17.004;2023-07-29T14:38:38;24.50;99.90
34985;DHT22;21190;58.750;17.004;2023-07-29T14:41:05;24.60;99.90
34985;DHT22;21190;58.750;17.004;2023-07-29T14:43:32;24.70;99.90
34985;DHT22;21190;58.750;17.004;2023-07-29T14:45:59;24.80;99.90
34985;DHT22;21190;58.750;17.004;2023-07-29T14:48:26;24.90;99.90
34985;DHT22;21190;58.750;17.004;2023-07-29T14:50:53;25.00;99.90
34985;DHT22;21190;58.750;17.004;2023-07-29T14:53:20;25.10;99.90
34985;DHT22;21190;58.750;17.004;2023-07-29T14:55:47;25.20;99.90
34985;DHT22;21190;58.750;17.004;2023-07-29T14:58:14;25.20;99.90
34985;DHT22;21190;58.750;17.004;2023-07-29T15:00:41;25.30;99.90
34985;DHT22;21190;58.750;17.004;2023-07-29T15:03:08;25.40;99.90
34985;DHT22;21190;58.750;17.004;2023-07-29T15:05:35;25.50;99.90
34985;DHT22;21190;58.750;17.004;2023-07-29T15:08:02;25.60;99.90
34985;DHT22;21190;58.750;17.004;2023-07-29T15:10:29;25.60;99.90
34985;DHT22;21190;58.750;17.004;2023-07-29T15:12:56;25.70;99.90
34985;DHT22;21190;58.750;17.004;2023-07-29T15:15:23;25.80;99.90
34985;DHT22;21190;58.750;17.004;2023-07-29T15:17:50;25.90;99.90
34985;DHT22;21190;58.750;17.004;2023-07-29T15:20:17;25.90;99.90
34985;DHT22;21190;58.750;17.004;2023-07-29T15:22:44;26.10;99.90
34985;DHT22;21190;58.750;17.004;2023-07-29T15:25:11;26.20;99.90
34985;DHT22;21190;58.750;17.004;2023-07-29T15:27:38;26.20;99.30
34985;DHT22;21190;58.750;17.004;2023-07-29T15:30:06;26.20;99.90
34985;DHT22;21190;58.750;17.004;2023-07-29T15:32:34;26.40;99.70
34985;DHT22;21190;58.750;17.004;2023-07-29T15:35:01;26.30;99.10
34985;DHT22;21190;58.750;17.004;2023-07-29T15:37:28;26.40;99.20
34985;DHT22;21190;58.750;17.004;2023-07-29T15:39:55;26.40;98.90
34985;DHT22;21190;58.750;17.004;2023-07-29T15:42:22;26.50;98.70
34985;DHT22;21190;58.750;17.004;2023-07-29T15:44:49;26.50;98.90